sensor_id;sensor_type;location;lat;lon;timestamp;pressure;altitude;pressure_sealevel;temperature;humidity
21011;BME280;10663;42.714;23.274;2023-05-22T00:00:31;94513.72;;;19.93;53.37
21011;BME280;10663;42.714;23.274;2023-05-22T00:02:01;94507.72;;;19.87;53.26
21011;BME280;10663;42.714;23.274;2023-05-22T00:03:33;94508.13;;;19.98;52.50
21011;BME280;10663;42.714;23.274;2023-05-22T00:05:06;94510.88;;;19.89;52.85
21011;BME280;10663;42.714;23.274;2023-05-22T00:06:37;94510.16;;;20.01;53.18
21011;BME280;10663;42.714;23.274;2023-05-22T00:08:07;94511.84;;;20.05;52.52
21011;BME280;10663;42.714;23.274;2023-05-22T00:09:41;94507.81;;;19.99;52.73
21011;BME280;10663;42.714;23.274;2023-05-22T00:11:11;94503.75;;;19.93;52.91
21011;BME280;10663;42.714;23.274;2023-05-22T00:12:42;94507.72;;;20.08;53.07
21011;BME280;10663;42.714;23.274;2023-05-22T00:14:13;94503.69;;;20.02;53.00
21011;BME280;10663;42.714;23.274;2023-05-22T00:15:43;94510.63;;;20.03;52.23
21011;BME280;10663;42.714;23.274;2023-05-22T00:17:14;94514.88;;;20.04;52.41
21011;BME280;10663;42.714;23.274;2023-05-22T00:18:45;94500.97;;;19.81;52.91
21011;BME280;10663;42.714;23.274;2023-05-22T00:20:16;94511.09;;;19.84;53.15
21011;BME280;10663;42.714;23.274;2023-05-22T00:21:47;94514.50;;;19.93;52.39
21011;BME280;10663;42.714;23.274;2023-05-22T00:23:20;94508.34;;;19.93;52.54
21011;BME280;10663;42.714;23.274;2023-05-22T00:24:51;94514.81;;;19.92;52.60
21011;BME280;10663;42.714;23.274;2023-05-22T00:26:22;94507.72;;;19.87;52.19
21011;BME280;10663;42.714;23.274;2023-05-22T00:27:53;94514.44;;;20.02;51.92
21011;BME280;10663;42.714;23.274;2023-05-22T00:29:23;94511.13;;;19.96;52.21
21011;BME280;10663;42.714;23.274;2023-05-22T00:30:54;94516.53;;;19.75;52.47
21011;BME280;10663;42.714;23.274;2023-05-22T00:32:25;94518.72;;;19.94;52.28
21011;BME280;10663;42.714;23.274;2023-05-22T00:33:57;94511.78;;;19.72;52.99
21011;BME280;10663;42.714;23.274;2023-05-22T00:35:28;94515.06;;;19.99;52.41
21011;BME280;10663;42.714;23.274;2023-05-22T00:36:58;94517.84;;;20.11;51.86
21011;BME280;10663;42.714;23.274;2023-05-22T00:38:30;94513.56;;;20.10;52.93
21011;BME280;10663;42.714;23.274;2023-05-22T00:40:02;94519.84;;;20.14;51.79
21011;BME280;10663;42.714;23.274;2023-05-22T00:41:33;94517.97;;;19.94;52.46
21011;BME280;10663;42.714;23.274;2023-05-22T00:43:04;94516.25;;;20.10;52.40
21011;BME280;10663;42.714;23.274;2023-05-22T00:44:37;94520.13;;;20.00;52.64
21011;BME280;10663;42.714;23.274;2023-05-22T00:46:08;94514.41;;;19.81;52.91
21011;BME280;10663;42.714;23.274;2023-05-22T00:47:39;94516.03;;;19.94;52.91
21011;BME280;10663;42.714;23.274;2023-05-22T00:49:10;94521.19;;;20.08;52.11
21011;BME280;10663;42.714;23.274;2023-05-22T00:50:42;94517.50;;;19.71;53.18
21011;BME280;10663;42.714;23.274;2023-05-22T00:52:13;94513.38;;;19.73;53.01
21011;BME280;10663;42.714;23.274;2023-05-22T00:53:44;94525.81;;;19.57;53.28
21011;BME280;10663;42.714;23.274;2023-05-22T00:55:15;94524.13;;;19.73;53.23
21011;BME280;10663;42.714;23.274;2023-05-22T00:56:46;94521.50;;;19.65;53.15
21011;BME280;10663;42.714;23.274;2023-05-22T00:58:18;94520.75;;;19.56;53.74
21011;BME280;10663;42.714;23.274;2023-05-22T00:59:50;94513.81;;;19.46;54.17
21011;BME280;10663;42.714;23.274;2023-05-22T01:01:24;94512.13;;;19.33;53.88
21011;BME280;10663;42.714;23.274;2023-05-22T01:02:55;94509.78;;;19.31;54.24
21011;BME280;10663;42.714;23.274;2023-05-22T01:04:26;94510.50;;;19.40;54.34
21011;BME280;10663;42.714;23.274;2023-05-22T01:05:57;94510.66;;;19.44;54.52
21011;BME280;10663;42.714;23.274;2023-05-22T01:07:28;94516.50;;;19.55;54.00
21011;BME280;10663;42.714;23.274;2023-05-22T01:09:00;94515.38;;;19.56;54.32
21011;BME280;10663;42.714;23.274;2023-05-22T01:10:31;94509.38;;;19.50;54.46
21011;BME280;10663;42.714;23.274;2023-05-22T01:12:25;94508.28;;;19.51;54.34
21011;BME280;10663;42.714;23.274;2023-05-22T01:15:34;94509.06;;;19.52;55.17
21011;BME280;10663;42.714;23.274;2023-05-22T01:17:13;94504.66;;;19.47;54.73
21011;BME280;10663;42.714;23.274;2023-05-22T01:20:26;94513.19;;;19.40;55.26
21011;BME280;10663;42.714;23.274;2023-05-22T01:32:09;94504.50;;;19.14;55.94
21011;BME280;10663;42.714;23.274;2023-05-22T01:33:44;94508.16;;;19.10;55.81
21011;BME280;10663;42.714;23.274;2023-05-22T01:35:16;94505.47;;;19.10;56.87
21011;BME280;10663;42.714;23.274;2023-05-22T01:36:48;94503.22;;;19.20;57.02
21011;BME280;10663;42.714;23.274;2023-05-22T01:38:20;94504.00;;;19.12;56.58
21011;BME280;10663;42.714;23.274;2023-05-22T01:39:51;94507.38;;;19.09;57.22
21011;BME280;10663;42.714;23.274;2023-05-22T01:41:22;94503.56;;;19.10;57.80
21011;BME280;10663;42.714;23.274;2023-05-22T01:42:53;94503.69;;;19.14;57.63
21011;BME280;10663;42.714;23.274;2023-05-22T01:44:24;94506.91;;;19.07;57.42
21011;BME280;10663;42.714;23.274;2023-05-22T01:45:55;94499.91;;;19.15;57.58
21011;BME280;10663;42.714;23.274;2023-05-22T01:47:26;94505.63;;;19.04;57.25
21011;BME280;10663;42.714;23.274;2023-05-22T01:48:57;94503.94;;;19.00;58.09
21011;BME280;10663;42.714;23.274;2023-05-22T01:50:28;94502.34;;;18.99;58.30
21011;BME280;10663;42.714;23.274;2023-05-22T01:53:33;94503.19;;;18.91;58.16
21011;BME280;10663;42.714;23.274;2023-05-22T01:55:08;94502.41;;;18.82;57.95
21011;BME280;10663;42.714;23.274;2023-05-22T02:00:14;94503.72;;;18.58;58.39
21011;BME280;10663;42.714;23.274;2023-05-22T02:01:49;94496.63;;;18.62;58.34
21011;BME280;10663;42.714;23.274;2023-05-22T02:03:21;94496.47;;;18.50;58.36
21011;BME280;10663;42.714;23.274;2023-05-22T02:04:55;94492.19;;;18.49;58.40
21011;BME280;10663;42.714;23.274;2023-05-22T02:06:28;94500.72;;;18.51;59.36
21011;BME280;10663;42.714;23.274;2023-05-22T02:08:01;94496.47;;;18.50;58.67
21011;BME280;10663;42.714;23.274;2023-05-22T02:09:33;94494.91;;;18.58;59.37
21011;BME280;10663;42.714;23.274;2023-05-22T02:11:04;94500.75;;;18.43;59.06
21011;BME280;10663;42.714;23.274;2023-05-22T02:12:36;94498.06;;;18.60;59.00
21011;BME280;10663;42.714;23.274;2023-05-22T02:14:08;94495.53;;;18.46;58.88
21011;BME280;10663;42.714;23.274;2023-05-22T02:15:43;94496.94;;;18.52;59.63
21011;BME280;10663;42.714;23.274;2023-05-22T02:17:15;94499.94;;;18.59;59.06
21011;BME280;10663;42.714;23.274;2023-05-22T02:18:47;94499.94;;;18.59;59.42
21011;BME280;10663;42.714;23.274;2023-05-22T02:20:18;94497.72;;;18.61;58.00
21011;BME280;10663;42.714;23.274;2023-05-22T02:21:49;94502.00;;;18.62;59.12
21011;BME280;10663;42.714;23.274;2023-05-22T02:23:19;94499.78;;;18.56;59.19
21011;BME280;10663;42.714;23.274;2023-05-22T02:24:50;94504.84;;;18.57;59.31
21011;BME280;10663;42.714;23.274;2023-05-22T02:26:21;94493.66;;;18.47;59.98
21011;BME280;10663;42.714;23.274;2023-05-22T02:27:53;94497.09;;;18.64;58.74
21011;BME280;10663;42.714;23.274;2023-05-22T02:29:24;94497.25;;;18.59;58.92
21011;BME280;10663;42.714;23.274;2023-05-22T02:30:55;94497.13;;;18.47;59.10
21011;BME280;10663;42.714;23.274;2023-05-22T02:32:26;94495.03;;;18.53;59.07
21011;BME280;10663;42.714;23.274;2023-05-22T02:33:57;94506.59;;;18.45;58.68
21011;BME280;10663;42.714;23.274;2023-05-22T02:35:28;94507.06;;;18.38;58.18
21011;BME280;10663;42.714;23.274;2023-05-22T02:37:00;94505.03;;;18.35;57.91
21011;BME280;10663;42.714;23.274;2023-05-22T02:38:33;94503.13;;;18.27;58.37
21011;BME280;10663;42.714;23.274;2023-05-22T02:40:04;94499.66;;;18.26;58.54
21011;BME280;10663;42.714;23.274;2023-05-22T02:41:36;94501.25;;;18.27;59.14
21011;BME280;10663;42.714;23.274;2023-05-22T02:43:07;94503.94;;;18.27;59.88
21011;BME280;10663;42.714;23.274;2023-05-22T02:44:38;94501.72;;;18.38;58.31
21011;BME280;10663;42.714;23.274;2023-05-22T02:46:08;94513.22;;;18.39;59.16
21011;BME280;10663;42.714;23.274;2023-05-22T02:47:40;94500.75;;;18.43;57.78
21011;BME280;10663;42.714;23.274;2023-05-22T02:49:10;94505.81;;;18.27;58.92
21011;BME280;10663;42.714;23.274;2023-05-22T02:50:41;94505.50;;;18.28;58.19
21011;BME280;10663;42.714;23.274;2023-05-22T02:52:13;94509.13;;;18.24;59.42
21011;BME280;10663;42.714;23.274;2023-05-22T02:53:44;94502.19;;;18.23;58.94
21011;BME280;10663;42.714;23.274;2023-05-22T02:55:15;94504.56;;;18.16;58.55
21011;BME280;10663;42.714;23.274;2023-05-22T02:56:46;94494.78;;;18.20;59.53
21011;BME280;10663;42.714;23.274;2023-05-22T02:58:17;94496.19;;;18.26;58.98
21011;BME280;10663;42.714;23.274;2023-05-22T02:59:48;94496.03;;;18.31;58.74
21011;BME280;10663;42.714;23.274;2023-05-22T03:01:19;94504.72;;;18.28;58.98
21011;BME280;10663;42.714;23.274;2023-05-22T03:02:52;94502.03;;;18.37;58.29
21011;BME280;10663;42.714;23.274;2023-05-22T03:04:23;94497.44;;;18.37;58.09
21011;BME280;10663;42.714;23.274;2023-05-22T03:05:54;94496.97;;;18.44;58.17
21011;BME280;10663;42.714;23.274;2023-05-22T03:07:27;94505.19;;;18.39;57.76
21011;BME280;10663;42.714;23.274;2023-05-22T03:08:59;94497.13;;;18.39;58.05
21011;BME280;10663;42.714;23.274;2023-05-22T03:10:29;94504.22;;;18.35;57.41
21011;BME280;10663;42.714;23.274;2023-05-22T03:12:01;94495.22;;;18.30;58.53
21011;BME280;10663;42.714;23.274;2023-05-22T03:13:32;94501.22;;;18.36;57.61
21011;BME280;10663;42.714;23.274;2023-05-22T03:15:02;94502.47;;;18.30;57.63
21011;BME280;10663;42.714;23.274;2023-05-22T03:16:36;94509.31;;;18.02;58.51
21011;BME280;10663;42.714;23.274;2023-05-22T03:18:06;94509.63;;;18.17;58.97
21011;BME280;10663;42.714;23.274;2023-05-22T03:19:37;94512.78;;;18.19;59.44
21011;BME280;10663;42.714;23.274;2023-05-22T03:21:08;94505.97;;;18.22;58.05
21011;BME280;10663;42.714;23.274;2023-05-22T03:22:39;94502.19;;;18.23;58.19
21011;BME280;10663;42.714;23.274;2023-05-22T03:24:10;94501.22;;;18.36;57.41
21011;BME280;10663;42.714;23.274;2023-05-22T03:25:42;94505.50;;;18.28;57.40
21011;BME280;10663;42.714;23.274;2023-05-22T03:27:14;94504.06;;;18.31;58.07
21011;BME280;10663;42.714;23.274;2023-05-22T03:28:46;94500.78;;;18.25;57.76
21011;BME280;10663;42.714;23.274;2023-05-22T03:30:17;94491.78;;;18.39;57.93
21011;BME280;10663;42.714;23.274;2023-05-22T03:31:58;94496.53;;;18.16;57.63
21011;BME280;10663;42.714;23.274;2023-05-22T03:33:29;94496.06;;;17.88;58.31
21011;BME280;10663;42.714;23.274;2023-05-22T03:35:00;94506.75;;;18.14;57.95
21011;BME280;10663;42.714;23.274;2023-05-22T03:36:31;94504.25;;;17.91;58.27
21011;BME280;10663;42.714;23.274;2023-05-22T03:38:05;94500.28;;;18.41;57.03
21011;BME280;10663;42.714;23.274;2023-05-22T03:39:36;94502.97;;;18.15;57.36
21011;BME280;10663;42.714;23.274;2023-05-22T03:41:19;94505.97;;;17.87;58.48
21011;BME280;10663;42.714;23.274;2023-05-22T03:42:50;94493.69;;;18.29;57.16
21011;BME280;10663;42.714;23.274;2023-05-22T03:44:22;94503.59;;;18.38;57.11
21011;BME280;10663;42.714;23.274;2023-05-22T03:45:52;94500.09;;;18.63;56.21
21011;BME280;10663;42.714;23.274;2023-05-22T03:47:23;94503.44;;;18.43;56.63
21011;BME280;10663;42.714;23.274;2023-05-22T03:48:55;94497.25;;;18.51;56.61
21011;BME280;10663;42.714;23.274;2023-05-22T03:50:25;94500.56;;;18.74;56.57
21011;BME280;10663;42.714;23.274;2023-05-22T03:51:56;94498.88;;;18.98;56.47
21011;BME280;10663;42.714;23.274;2023-05-22T03:53:27;94499.69;;;19.28;55.92
21011;BME280;10663;42.714;23.274;2023-05-22T03:54:58;94506.44;;;19.34;55.45
21011;BME280;10663;42.714;23.274;2023-05-22T03:56:29;94501.28;;;19.29;55.83
21011;BME280;10663;42.714;23.274;2023-05-22T03:58:01;94510.41;;;19.37;54.21
21011;BME280;10663;42.714;23.274;2023-05-22T03:59:31;94511.63;;;19.39;53.68
21011;BME280;10663;42.714;23.274;2023-05-22T04:01:02;94511.53;;;19.27;54.38
21011;BME280;10663;42.714;23.274;2023-05-22T04:02:33;94518.38;;;19.16;53.93
21011;BME280;10663;42.714;23.274;2023-05-22T04:04:04;94516.41;;;18.96;54.38
21011;BME280;10663;42.714;23.274;2023-05-22T04:05:34;94515.16;;;18.93;54.27
21011;BME280;10663;42.714;23.274;2023-05-22T04:07:05;94507.75;;;18.90;54.51
21011;BME280;10663;42.714;23.274;2023-05-22T04:08:37;94509.97;;;18.88;54.66
21011;BME280;10663;42.714;23.274;2023-05-22T04:10:08;94512.50;;;18.85;54.75
21011;BME280;10663;42.714;23.274;2023-05-22T04:11:39;94511.56;;;18.81;55.35
21011;BME280;10663;42.714;23.274;2023-05-22T04:13:12;94512.38;;;18.81;56.55
21011;BME280;10663;42.714;23.274;2023-05-22T04:14:43;94512.63;;;18.97;54.74
21011;BME280;10663;42.714;23.274;2023-05-22T04:16:15;94508.94;;;19.10;54.15
21011;BME280;10663;42.714;23.274;2023-05-22T04:17:48;94517.31;;;19.09;55.29
21011;BME280;10663;42.714;23.274;2023-05-22T04:19:19;94514.78;;;19.03;55.11
21011;BME280;10663;42.714;23.274;2023-05-22T04:20:50;94511.03;;;18.96;56.28
21011;BME280;10663;42.714;23.274;2023-05-22T04:22:22;94515.75;;;19.08;56.00
21011;BME280;10663;42.714;23.274;2023-05-22T04:23:53;94508.59;;;19.20;54.20
21011;BME280;10663;42.714;23.274;2023-05-22T04:25:24;94504.00;;;19.12;55.23
21011;BME280;10663;42.714;23.274;2023-05-22T04:26:56;94502.44;;;19.20;54.38
21011;BME280;10663;42.714;23.274;2023-05-22T04:28:29;94509.03;;;18.84;55.39
21011;BME280;10663;42.714;23.274;2023-05-22T04:30:01;94508.25;;;18.84;55.20
21011;BME280;10663;42.714;23.274;2023-05-22T04:31:32;94511.25;;;18.82;55.11
21011;BME280;10663;42.714;23.274;2023-05-22T04:33:02;94517.72;;;18.81;55.95
21011;BME280;10663;42.714;23.274;2023-05-22T04:34:35;94519.03;;;18.41;56.10
21011;BME280;10663;42.714;23.274;2023-05-22T04:36:06;94520.31;;;18.43;56.15
21011;BME280;10663;42.714;23.274;2023-05-22T04:37:39;94519.03;;;19.13;54.15
21011;BME280;10663;42.714;23.274;2023-05-22T04:39:11;94512.81;;;19.30;53.79
21011;BME280;10663;42.714;23.274;2023-05-22T04:40:43;94514.22;;;19.27;53.56
21011;BME280;10663;42.714;23.274;2023-05-22T04:42:14;94512.56;;;19.43;53.72
21011;BME280;10663;42.714;23.274;2023-05-22T04:43:45;94520.31;;;19.45;53.39
21011;BME280;10663;42.714;23.274;2023-05-22T04:45:18;94521.25;;;19.40;53.59
21011;BME280;10663;42.714;23.274;2023-05-22T04:46:50;94520.44;;;19.78;52.22
21011;BME280;10663;42.714;23.274;2023-05-22T04:48:21;94525.06;;;19.69;52.41
21011;BME280;10663;42.714;23.274;2023-05-22T04:49:52;94515.66;;;20.04;52.08
21011;BME280;10663;42.714;23.274;2023-05-22T04:51:23;94523.72;;;20.46;50.83
21011;BME280;10663;42.714;23.274;2023-05-22T04:52:54;94516.16;;;20.60;51.27
21011;BME280;10663;42.714;23.274;2023-05-22T04:54:25;94525.03;;;20.40;52.06
21011;BME280;10663;42.714;23.274;2023-05-22T04:55:56;94520.41;;;20.61;51.13
21011;BME280;10663;42.714;23.274;2023-05-22T04:57:27;94515.66;;;20.91;50.25
21011;BME280;10663;42.714;23.274;2023-05-22T04:58:57;94523.88;;;21.07;50.59
21011;BME280;10663;42.714;23.274;2023-05-22T05:00:29;94519.88;;;21.25;50.50
21011;BME280;10663;42.714;23.274;2023-05-22T05:02:00;94517.31;;;21.28;48.61
21011;BME280;10663;42.714;23.274;2023-05-22T05:03:32;94520.56;;;21.46;48.81
21011;BME280;10663;42.714;23.274;2023-05-22T05:05:03;94529.50;;;20.69;49.02
21011;BME280;10663;42.714;23.274;2023-05-22T05:06:34;94529.41;;;20.77;49.16
21011;BME280;10663;42.714;23.274;2023-05-22T05:08:06;94520.50;;;20.98;49.27
21011;BME280;10663;42.714;23.274;2023-05-22T05:09:36;94522.63;;;20.92;48.76
21011;BME280;10663;42.714;23.274;2023-05-22T05:11:07;94524.19;;;20.27;50.06
21011;BME280;10663;42.714;23.274;2023-05-22T05:12:38;94528.00;;;20.47;49.83
21011;BME280;10663;42.714;23.274;2023-05-22T05:14:09;94528.81;;;20.92;49.28
21011;BME280;10663;42.714;23.274;2023-05-22T05:15:40;94525.25;;;20.68;49.82
21011;BME280;10663;42.714;23.274;2023-05-22T05:17:11;94533.72;;;20.90;49.64
21011;BME280;10663;42.714;23.274;2023-05-22T05:18:45;94539.22;;;20.82;50.53
21011;BME280;10663;42.714;23.274;2023-05-22T05:20:16;94531.31;;;21.22;49.76
21011;BME280;10663;42.714;23.274;2023-05-22T05:21:47;94533.03;;;21.26;50.08
21011;BME280;10663;42.714;23.274;2023-05-22T05:23:19;94527.31;;;21.28;48.77
21011;BME280;10663;42.714;23.274;2023-05-22T05:24:50;94531.78;;;21.36;48.77
21011;BME280;10663;42.714;23.274;2023-05-22T05:26:21;94528.19;;;21.32;49.90
21011;BME280;10663;42.714;23.274;2023-05-22T05:27:53;94538.84;;;21.41;49.19
21011;BME280;10663;42.714;23.274;2023-05-22T05:29:26;94537.28;;;21.27;49.44
21011;BME280;10663;42.714;23.274;2023-05-22T05:31:03;94533.63;;;20.99;48.23
21011;BME280;10663;42.714;23.274;2023-05-22T05:32:40;94534.91;;;20.36;49.54
21011;BME280;10663;42.714;23.274;2023-05-22T05:34:25;94529.56;;;20.48;49.99
21011;BME280;10663;42.714;23.274;2023-05-22T05:36:01;94537.00;;;21.08;49.88
21011;BME280;10663;42.714;23.274;2023-05-22T05:37:32;94534.38;;;21.33;48.75
21011;BME280;10663;42.714;23.274;2023-05-22T05:39:05;94532.50;;;21.12;47.69
21011;BME280;10663;42.714;23.274;2023-05-22T05:40:38;94532.59;;;21.37;47.89
21011;BME280;10663;42.714;23.274;2023-05-22T05:42:10;94537.56;;;21.14;47.83
21011;BME280;10663;42.714;23.274;2023-05-22T05:43:41;94537.16;;;21.60;47.20
21011;BME280;10663;42.714;23.274;2023-05-22T05:45:13;94527.31;;;21.52;48.42
21011;BME280;10663;42.714;23.274;2023-05-22T05:46:44;94541.69;;;21.56;48.32
21011;BME280;10663;42.714;23.274;2023-05-22T05:48:16;94532.56;;;21.97;46.16
21011;BME280;10663;42.714;23.274;2023-05-22T05:49:49;94536.47;;;22.40;44.56
21011;BME280;10663;42.714;23.274;2023-05-22T05:51:20;94533.72;;;22.24;46.32
21011;BME280;10663;42.714;23.274;2023-05-22T05:52:51;94533.53;;;22.17;46.49
21011;BME280;10663;42.714;23.274;2023-05-22T05:54:23;94539.69;;;22.30;46.77
21011;BME280;10663;42.714;23.274;2023-05-22T05:55:57;94539.13;;;22.24;46.29
21011;BME280;10663;42.714;23.274;2023-05-22T05:57:29;94533.13;;;21.79;46.17
21011;BME280;10663;42.714;23.274;2023-05-22T05:59:01;94538.81;;;22.14;45.88
21011;BME280;10663;42.714;23.274;2023-05-22T06:00:40;94541.66;;;21.81;46.42
21011;BME280;10663;42.714;23.274;2023-05-22T06:02:13;94543.00;;;21.99;45.88
21011;BME280;10663;42.714;23.274;2023-05-22T06:03:45;94545.47;;;21.80;46.04
21011;BME280;10663;42.714;23.274;2023-05-22T06:05:26;94547.03;;;21.93;46.61
21011;BME280;10663;42.714;23.274;2023-05-22T06:07:06;94546.72;;;21.70;46.06
21011;BME280;10663;42.714;23.274;2023-05-22T06:08:45;94539.16;;;22.12;45.42
21011;BME280;10663;42.714;23.274;2023-05-22T06:10:15;94530.25;;;22.52;44.06
21011;BME280;10663;42.714;23.274;2023-05-22T06:12:02;94543.28;;;22.50;44.94
21011;BME280;10663;42.714;23.274;2023-05-22T06:13:33;94536.84;;;22.94;43.22
21011;BME280;10663;42.714;23.274;2023-05-22T06:15:06;94537.63;;;23.10;42.38
21011;BME280;10663;42.714;23.274;2023-05-22T06:16:38;94537.63;;;23.26;41.53
21011;BME280;10663;42.714;23.274;2023-05-22T06:18:08;94541.47;;;23.41;41.29
21011;BME280;10663;42.714;23.274;2023-05-22T06:19:41;94534.16;;;23.26;42.37
21011;BME280;10663;42.714;23.274;2023-05-22T06:21:11;94537.19;;;23.40;40.89
21011;BME280;10663;42.714;23.274;2023-05-22T06:22:42;94541.03;;;23.07;42.65
21011;BME280;10663;42.714;23.274;2023-05-22T06:24:13;94541.63;;;23.01;43.61
21011;BME280;10663;42.714;23.274;2023-05-22T06:25:44;94547.72;;;22.70;41.86
21011;BME280;10663;42.714;23.274;2023-05-22T06:27:16;94542.56;;;22.65;43.53
21011;BME280;10663;42.714;23.274;2023-05-22T06:28:47;94548.47;;;22.55;43.47
21011;BME280;10663;42.714;23.274;2023-05-22T06:30:18;94538.66;;;22.90;41.49
21011;BME280;10663;42.714;23.274;2023-05-22T06:31:50;94542.75;;;23.00;42.10
21011;BME280;10663;42.714;23.274;2023-05-22T06:33:23;94537.06;;;22.33;42.75
21011;BME280;10663;42.714;23.274;2023-05-22T06:34:54;94537.28;;;22.00;44.04
21011;BME280;10663;42.714;23.274;2023-05-22T06:36:25;94543.00;;;21.99;44.60
21011;BME280;10663;42.714;23.274;2023-05-22T06:37:57;94543.41;;;22.53;42.58
21011;BME280;10663;42.714;23.274;2023-05-22T06:39:30;94542.88;;;23.03;40.75
21011;BME280;10663;42.714;23.274;2023-05-22T06:41:19;94531.28;;;23.34;40.20
21011;BME280;10663;42.714;23.274;2023-05-22T06:42:51;94539.47;;;23.38;39.70
21011;BME280;10663;42.714;23.274;2023-05-22T06:44:44;94530.94;;;23.52;38.90
21011;BME280;10663;42.714;23.274;2023-05-22T06:46:15;94535.56;;;23.51;39.42
21011;BME280;10663;42.714;23.274;2023-05-22T06:47:55;94530.16;;;23.20;39.38
21011;BME280;10663;42.714;23.274;2023-05-22T06:49:26;94526.13;;;23.61;38.93
21011;BME280;10663;42.714;23.274;2023-05-22T06:50:58;94528.38;;;23.43;39.79
21011;BME280;10663;42.714;23.274;2023-05-22T06:52:30;94533.38;;;23.25;38.98
21011;BME280;10663;42.714;23.274;2023-05-22T06:54:01;94534.06;;;23.69;38.02
21011;BME280;10663;42.714;23.274;2023-05-22T06:55:36;94536.56;;;23.94;40.97
21011;BME280;10663;42.714;23.274;2023-05-22T06:57:14;94534.81;;;24.20;41.71
21011;BME280;10663;42.714;23.274;2023-05-22T06:58:45;94538.34;;;24.21;40.81
21011;BME280;10663;42.714;23.274;2023-05-22T07:00:16;94532.50;;;23.37;39.35
21011;BME280;10663;42.714;23.274;2023-05-22T07:02:19;94533.75;;;23.55;39.44
21011;BME280;10663;42.714;23.274;2023-05-22T07:04:12;94536.47;;;24.25;39.01
21011;BME280;10663;42.714;23.274;2023-05-22T07:05:54;94536.09;;;23.57;37.59
21011;BME280;10663;42.714;23.274;2023-05-22T07:07:28;94535.94;;;24.00;36.93
21011;BME280;10663;42.714;23.274;2023-05-22T07:09:00;94537.84;;;23.65;38.48
21011;BME280;10663;42.714;23.274;2023-05-22T07:10:31;94537.16;;;24.38;39.54
21011;BME280;10663;42.714;23.274;2023-05-22T07:12:04;94533.69;;;24.79;37.87
21011;BME280;10663;42.714;23.274;2023-05-22T07:13:35;94537.41;;;24.71;37.34
21011;BME280;10663;42.714;23.274;2023-05-22T07:15:06;94529.84;;;25.22;36.80
21011;BME280;10663;42.714;23.274;2023-05-22T07:16:41;94532.78;;;24.72;35.74
21011;BME280;10663;42.714;23.274;2023-05-22T07:18:11;94534.84;;;24.05;37.17
21011;BME280;10663;42.714;23.274;2023-05-22T07:19:45;94537.63;;;24.24;37.20
21011;BME280;10663;42.714;23.274;2023-05-22T07:21:16;94537.09;;;24.18;37.15
21011;BME280;10663;42.714;23.274;2023-05-22T07:22:47;94528.50;;;24.32;37.88
21011;BME280;10663;42.714;23.274;2023-05-22T07:24:18;94540.16;;;24.17;37.09
21011;BME280;10663;42.714;23.274;2023-05-22T07:25:49;94531.34;;;24.04;37.67
21011;BME280;10663;42.714;23.274;2023-05-22T07:27:21;94533.94;;;24.51;37.47
21011;BME280;10663;42.714;23.274;2023-05-22T07:28:53;94533.38;;;24.07;36.52
21011;BME280;10663;42.714;23.274;2023-05-22T07:30:24;94529.25;;;24.90;36.45
21011;BME280;10663;42.714;23.274;2023-05-22T07:31:55;94531.00;;;25.67;33.68
21011;BME280;10663;42.714;23.274;2023-05-22T07:33:28;94528.34;;;25.48;34.59
21011;BME280;10663;42.714;23.274;2023-05-22T07:35:00;94526.66;;;24.94;35.34
21011;BME280;10663;42.714;23.274;2023-05-22T07:36:31;94522.41;;;25.39;33.26
21011;BME280;10663;42.714;23.274;2023-05-22T07:38:01;94517.63;;;24.67;33.08
21011;BME280;10663;42.714;23.274;2023-05-22T07:39:33;94519.56;;;24.89;33.09
21011;BME280;10663;42.714;23.274;2023-05-22T07:41:04;94520.69;;;24.88;33.38
21011;BME280;10663;42.714;23.274;2023-05-22T07:42:37;94515.50;;;24.99;33.99
21011;BME280;10663;42.714;23.274;2023-05-22T07:44:09;94528.72;;;24.43;34.66
21011;BME280;10663;42.714;23.274;2023-05-22T07:45:41;94523.41;;;25.08;34.42
21011;BME280;10663;42.714;23.274;2023-05-22T07:47:16;94520.47;;;25.16;34.19
21011;BME280;10663;42.714;23.274;2023-05-22T07:48:47;94516.72;;;25.47;33.72
21011;BME280;10663;42.714;23.274;2023-05-22T07:50:19;94515.41;;;25.60;33.24
21011;BME280;10663;42.714;23.274;2023-05-22T07:51:50;94516.28;;;25.22;33.40
21011;BME280;10663;42.714;23.274;2023-05-22T07:53:22;94515.78;;;26.15;32.26
21011;BME280;10663;42.714;23.274;2023-05-22T07:54:56;94512.53;;;26.62;31.31
21011;BME280;10663;42.714;23.274;2023-05-22T07:56:28;94515.25;;;26.29;32.70
21011;BME280;10663;42.714;23.274;2023-05-22T07:58:00;94513.47;;;25.61;32.76
21011;BME280;10663;42.714;23.274;2023-05-22T07:59:38;94507.31;;;25.90;33.04
21011;BME280;10663;42.714;23.274;2023-05-22T08:01:08;94514.69;;;26.50;32.57
21011;BME280;10663;42.714;23.274;2023-05-22T08:02:39;94512.00;;;26.20;32.61
21011;BME280;10663;42.714;23.274;2023-05-22T08:04:10;94507.09;;;26.62;31.79
21011;BME280;10663;42.714;23.274;2023-05-22T08:05:41;94507.91;;;26.33;33.12
21011;BME280;10663;42.714;23.274;2023-05-22T08:07:12;94515.13;;;25.95;32.54
21011;BME280;10663;42.714;23.274;2023-05-22T08:08:43;94513.56;;;26.21;32.33
21011;BME280;10663;42.714;23.274;2023-05-22T08:10:16;94507.97;;;26.70;32.63
21011;BME280;10663;42.714;23.274;2023-05-22T08:11:47;94506.88;;;26.44;32.75
21011;BME280;10663;42.714;23.274;2023-05-22T08:13:17;94515.47;;;26.47;32.04
21011;BME280;10663;42.714;23.274;2023-05-22T08:14:48;94518.47;;;26.38;32.42
21011;BME280;10663;42.714;23.274;2023-05-22T08:16:19;94512.28;;;26.74;31.52
21011;BME280;10663;42.714;23.274;2023-05-22T08:17:50;94512.53;;;26.96;31.44
21011;BME280;10663;42.714;23.274;2023-05-22T08:19:20;94514.03;;;27.30;31.03
21011;BME280;10663;42.714;23.274;2023-05-22T08:20:51;94504.53;;;27.54;30.49